Tiempo atmosférico en la estación meteorológica de Santander, Cantabria (52 m.)



Fecha
DESCASC
Temp. máxima en grados centígrados (hora)
DESCASC
Temp. mínima en grados centígrados (hora)
DESCASC
Temp. media en grados centígrados
DESCASC
Racha de viento máxima en m/sg (hora)
DESCASC
Velocidad máxima media en intervalos de 10 minutos(hora)
DESCASC
Precipitaciones diarias en mm
DESCASC
Precipitaciones de 00:00 a 06:00 en mm
DESCASC
Precipitaciones de 06:00 a 12:00 en mm
DESCASC
Precipitaciones de 12:00 a 18:00 en mm
DESCASC
Precipitaciones de 18:00 a 24:00 en mm
DESCASC
03-12-2020 14.1 (14:10) 8.7 (23:40) 11.4 25.28 (22:00) 16.39 (22:00) 7.8 0 0 0 7.8
02-12-2020 12.9 (00:00) 9.7 (23:20) 11.3 13.61 (00:40) 8.33 (00:10) 0.2 0.2 0 0 0
01-12-2020 13.8 (18:40) 8.8 (09:00) 11.3 12.5 (20:30) 9.17 (20:30) 4.2 0 0 0 4.2
30-11-2020 15 (11:30) 10.8 (00:00) 12.9 7.22 (16:40) 5.28 (19:10) 0 0 0 0 0
29-11-2020 19.8 (12:00) 11.9 (00:00) 15.8 8.61 (18:20) 6.67 (17:00) 0 0 0 0 0
28-11-2020 16.9 (11:40) 11.3 (00:00) 14.1 8.33 (17:20) 6.39 (14:40) 0 0 0 0 0
27-11-2020 16.3 (12:10) 13.3 (00:00) 14.8 7.78 (22:40) 5.28 (22:50) 0 0 0 0 0
26-11-2020 16.8 (14:20) 11 (00:00) 13.9 6.11 (18:00) 4.44 (17:50) 0 0 0 0 0
25-11-2020 17.4 (12:00) 11.1 (00:00) 14.3 14.44 (05:10) 9.17 (05:10) 0 0 0 0 0
24-11-2020 16.7 (15:50) 10.2 (00:00) 13.5 10.28 (09:20) 5.83 (01:00) 0 0 0 0 0
23-11-2020 15.5 (13:40) 9.1 (00:00) 12.3 9.44 (21:30) 6.67 (19:00) 0 0 0 0 0
22-11-2020 15.2 (13:50) 8.1 (00:00) 11.7 5.56 (01:30) 4.44 (01:30) 0 0 0 0 0
21-11-2020 13 (13:00) 9.6 (00:00) 11.3 15.56 (11:30) 12.22 (11:40) 0 0 0 0 0
20-11-2020 15.7 (13:10) 10 (00:00) 12.8 10.28 (18:50) 7.78 (18:50) 0 0 0 0 0
19-11-2020 16.6 (00:30) 11.8 (00:00) 14.2 10.28 (06:50) 8.33 (07:00) 1.2 0 1.2 0 0
18-11-2020 20.7 (11:00) 15.9 (00:00) 18.3 8.33 (07:20) 6.11 (07:10) 0 0 0 0 0
17-11-2020 17.9 (23:10) 9.8 (00:00) 13.8 6.39 (14:40) 5.28 (14:40) 0 0 0 0 0
16-11-2020 16.2 (12:40) 11.4 (00:00) 13.8 9.72 (01:10) 6.67 (01:10) 0.8 0.6 0.2 0 0
15-11-2020 22 (11:40) 13.1 (00:00) 17.6 15.28 (07:00) 10 (07:30) 4.4 0 0 2 2.4
14-11-2020 22.6 (12:50) 13.9 (00:00) 18.3 11.67 (22:10) 7.5 (13:10) 0 0 0 0 0
13-11-2020 21.4 (12:10) 14.1 (00:00) 17.8 9.17 (16:30) 6.94 (16:30) 0 0 0 0 0
12-11-2020 18.5 (23:20) 14.5 (00:00) 16.5 8.33 (17:40) 6.39 (17:40) 0 0 0 0 0
11-11-2020 17.5 (12:00) 11.6 (00:00) 14.6 6.67 (23:00) 4.72 (23:00) 0 0 0 0 0
10-11-2020 17.8 (13:00) 13.1 (00:00) 15.4 8.89 (17:20) 6.67 (16:40) 0.8 0.8 0 0 0
09-11-2020 21.7 (12:30) 14.6 (00:00) 18.2 13.61 (01:40) 9.17 (01:40) 0.4 0.2 0 0 0.2
08-11-2020 20.8 (12:10) 17.6 (00:00) 19.2 16.94 (07:50) 10.56 (07:10) 0 0 0 0 0
07-11-2020 19.6 (11:00) 15.5 (00:00) 17.6 10.28 (10:10) 6.67 (10:10) 0 0 0 0 0
06-11-2020 21.9 (15:10) 15.6 (00:00) 18.8 20.28 (23:10) 10.56 (23:10) 0 0 0 0 0
05-11-2020 15.9 (23:59) 10.4 (00:00) 13.1 19.17 (14:50) 15.83 (13:50) 0 0 0 0 0

Gráficas

Temp. máximas Temp. mínimas Temp. medias Precipitaciones Rachas de viento máximas Velocidades máximas media en intervalos de 10 minutos

Datos horarios

Fecha y hora oficial Temperatura (ºC) Velocidad del viento (km/h) Dirección del viento Racha (km/h) Dirección de racha Precipitación (mm) Presión (hPa) Tendencia (hPa) Humedad (%)
2020-12-04 23:00:00 4.6 16 Sudoeste 33 Sudoeste 0 989.3 -- 89
2020-12-04 22:00:00 4.8 20 Sudoeste 57 Oeste 0.8 989.5 -- 90
2020-12-04 21:00:00 5.7 41 Oeste 79 Noroeste 2.2 988.9 -- 88
2020-12-04 20:00:00 6.4 24 Oeste 39 Oeste 0 988 -- 87
2020-12-04 19:00:00 5.5 15 Sur 35 Oeste 0.6 987.5 -- 89
2020-12-04 18:00:00 6.1 28 Noroeste 68 Noroeste 2 987.9 -- 87
2020-12-04 17:00:00 7.4 30 Oeste 61 Oeste 2.4 986.4 -- 88
2020-12-04 16:00:00 6.2 15 Sudoeste 31 Sudoeste 0.2 986.1 -- 89
2020-12-04 15:00:00 5.9 18 Sudoeste 57 Oeste 2.8 986.3 -- 89
2020-12-04 14:00:00 5.7 36 Oeste 54 Oeste 5 986.8 -- 87
2020-12-04 13:00:00 5.8 24 Oeste 51 Sudoeste 1.2 987 -- 84
2020-12-04 12:00:00 6 32 Sudoeste 67 Oeste 0.2 986.1 -- 84
2020-12-04 11:00:00 6.8 49 Oeste 72 Oeste 1.6 986.1 -- 79
2020-12-04 10:00:00 8.9 46 Oeste 74 Oeste 0 985.5 -- 70
2020-12-04 09:00:00 8.2 48 Oeste 67 Oeste 0 985.2 -- 71
2020-12-04 08:00:00 6.1 23 Sudoeste 44 Sudoeste 0 985.6 -- 80
2020-12-04 07:00:00 6 24 Sudoeste 86 Oeste 2.4 985.8 -- 85
2020-12-04 06:00:00 7 49 Oeste 72 Oeste 1.2 986.1 -- 82
2020-12-04 05:00:00 7.1 44 Oeste 80 Oeste 0 985.7 -- 81
2020-12-04 04:00:00 7.1 60 Oeste 86 Oeste 0.8 986.9 -- 86
2020-12-04 03:00:00 7 31 Oeste 80 Oeste 1.4 987.4 -- 85
2020-12-04 02:00:00 8.1 44 Oeste 82 Oeste 2 987.7 -- 85
2020-12-04 01:00:00 7.6 55 Oeste 85 Oeste 3.2 988.9 -- 82
2020-12-04 00:00:00 9.3 46 Oeste 85 Noroeste 2.4 988.5 -- 86
2020-12-03 23:00:00 9.5 52 Oeste 81 Oeste 3.6 988.6 -- 87
2020-12-03 22:00:00 10.5 59 Oeste 91 Noroeste 1 988.4 -- 83
2020-12-03 21:00:00 11.2 36 Oeste 76 Noroeste 0.8 989.3 -- 71
2020-12-03 20:00:00 12.4 22 Sur 44 Sudoeste 0 988.5 -- 54
2020-12-03 19:00:00 12.4 19 Sur 48 Sur 0 989.9 -- 52
2020-12-03 18:00:00 12.1 18 Sur 26 Sur 0 991.8 -- 53
2020-12-03 17:00:00 12.3 17 Sur 28 Sur 0 993.2 -- 53
2020-12-03 16:00:00 13 19 Sur 32 Sur 0 994.8 -- 50
2020-12-03 15:00:00 13.7 14 Sudoeste 28 Sudoeste 0 996 -- 53
2020-12-03 14:00:00 14 15 Sudoeste 32 Sudoeste 0 997.4 -- 53
2020-12-03 13:00:00 12.9 17 Sudoeste 32 Sudoeste 0 999.5 -- 55
2020-12-03 12:00:00 12.2 18 Sudoeste 30 Sudoeste 0 1001.3 -- 56
2020-12-03 11:00:00 11.2 15 Sudoeste 25 Sudoeste 0 1003.2 -- 58
2020-12-03 10:00:00 10.6 15 Sudoeste 27 Sur 0 1004.3 -- 61
2020-12-03 09:00:00 10.2 15 Sudoeste 23 Sudoeste 0 1004.9 -- 65
2020-12-03 08:00:00 10 14 Sudoeste 22 Sudoeste 0 1005.5 -- 66
2020-12-03 07:00:00 10.1 10 Sudoeste 24 Sudoeste 0 1006.8 -- 66
2020-12-03 06:00:00 10.3 16 Sudoeste 26 Sudoeste 0 1007.2 -- 66
2020-12-03 05:00:00 10.7 13 Sudoeste 29 Oeste 0 1009.1 -- 68
2020-12-03 04:00:00 10.6 15 Sudoeste 24 Sudoeste 0 1010.2 -- 69
2020-12-03 03:00:00 10.5 13 Sudoeste 23 Sudoeste 0 1010.4 -- 70
2020-12-03 02:00:00 10.4 13 Sudoeste 26 Sudoeste 0 1011.4 -- 73
2020-12-03 01:00:00 10.4 15 Sudoeste 25 Oeste 0 1012.3 -- 74
2020-12-03 00:00:00 9.9 12 Sudoeste 22 Sudoeste 0 1012.9 -- 76
2020-12-02 23:00:00 9.9 10 Sudoeste 21 Sudoeste 0 1013.6 -- 73
2020-12-02 22:00:00 10.5 11 Sudoeste 22 Noroeste 0 1014 -- 66
2020-12-02 21:00:00 11.4 15 Noroeste 24 Noroeste 0 1014.7 -- 63
2020-12-02 20:00:00 11.5 14 Noroeste 26 Noroeste 0 1014.7 -- 59
2020-12-02 19:00:00 11.7 18 Noroeste 30 Norte 0 1014.5 -- 63
2020-12-02 18:00:00 11.4 13 Noroeste 28 Nordeste 0 1014.3 -- 60
2020-12-02 17:00:00 11.6 20 Norte 31 Norte 0 1014.6 -- 57
2020-12-02 16:00:00 11.8 19 Norte 29 Norte 0 1014.8 -- 58
2020-12-02 15:00:00 11.9 22 Norte 34 Norte 0 1014.8 -- 57
2020-12-02 14:00:00 11.8 21 Norte 32 Norte 0 1014.9 -- 59
2020-12-02 13:00:00 11.7 18 Norte 33 Norte 0 1015 -- 61
2020-12-02 12:00:00 10.9 24 Norte 39 Norte 0 1015.5 -- 68
2020-12-02 11:00:00 11.9 21 Norte 37 Norte 0 1015.5 -- 60
2020-12-02 10:00:00 11.9 24 Norte 38 Norte 0 1015.5 -- 63
2020-12-02 09:00:00 11.7 22 Norte 33 Norte 0 1015.3 -- 63
2020-12-02 08:00:00 11.6 19 Norte 29 Norte 0 1015.4 -- 64
2020-12-02 07:00:00 11.6 21 Norte 31 Norte 0 1015.2 -- 65
2020-12-02 06:00:00 11.4 17 Norte 25 Nordeste 0 1015.3 -- 63
2020-12-02 05:00:00 11.3 18 Nordeste 32 Nordeste 0 1015.4 -- 65
2020-12-02 04:00:00 11.3 22 Nordeste 40 Nordeste 0 1015.3 -- 68
2020-12-02 03:00:00 11.8 26 Nordeste 36 Nordeste 0.2 1015.4 -- 72
2020-12-02 02:00:00 12.2 28 Nordeste 44 Nordeste 0 1015.5 -- 71
2020-12-02 01:00:00 12.6 27 Nordeste 49 Nordeste 0 1015.7 -- 75
2020-12-02 00:00:00 12.9 28 Norte 43 Norte 0 1015.9 -- 76
2020-12-01 23:00:00 12.8 30 Norte 41 Nordeste 0.6 1016 -- 83
2020-12-01 22:00:00 11.5 11 Oeste 36 Noroeste 2.4 1016.3 -- 94
2020-12-01 21:00:00 11.1 24 Noroeste 45 Noroeste 1.2 1016.2 -- 91
2020-12-01 20:00:00 13.4 23 Oeste 35 Noroeste 0 1016.4 -- 80
2020-12-01 19:00:00 13.7 20 Noroeste 31 Noroeste 0 1016.6 -- 80
2020-12-01 18:00:00 13.4 20 Oeste 30 Oeste 0 1016.7 -- 83
2020-12-01 17:00:00 13.3 15 Oeste 25 Oeste 0 1017 -- 82
2020-12-01 16:00:00 13.3 14 Oeste 24 Oeste 0 1017.6 -- 86
2020-12-01 15:00:00 13 16 Oeste 24 Oeste 0 1017.9 -- 84
2020-12-01 14:00:00 12.8 16 Oeste 24 Oeste 0 1018.3 -- 82
2020-12-01 13:00:00 12.6 9 Sudoeste 17 Sudoeste 0 1019.1 -- 76
2020-12-01 12:00:00 12.2 6 Sudoeste 11 Sudoeste 0 1020.2 -- 76
2020-12-01 11:00:00 11.3 9 Oeste 14 Sudoeste 0 1020.7 -- 77
2020-12-01 10:00:00 9.8 12 Sudoeste 18 Sudoeste 0 1020.1 -- 85
2020-12-01 09:00:00 8.8 14 Sur 21 Sur 0 1020 -- 89
2020-12-01 08:00:00 9.1 9 Sur 21 Sur 0 1020 -- 90
2020-12-01 07:00:00 9.2 14 Sur 19 Sur 0 1020 -- 91
2020-12-01 06:00:00 9.4 14 Sur 18 Sur 0 1020.2 -- 93
2020-12-01 05:00:00 9.9 10 Sur 12 Sur 0 1020.3 -- 93
2020-12-01 04:00:00 10.4 9 Sudoeste 13 Sur 0 1020.6 -- 94
2020-12-01 03:00:00 10.3 11 Sur 16 Sur 0 1020.5 -- 94
2020-12-01 02:00:00 10.4 9 Sur 11 Sur 0 1020.8 -- 93
2020-12-01 01:00:00 10.9 4 Sur 10 Sudeste 0 1021 -- 92
2020-12-01 00:00:00 10.9 6 Este 12 Sur 0 1020.9 -- 91
2020-11-30 23:00:00 10.9 10 Sudeste 15 Nordeste 0 1020.4 -- 89
2020-11-30 22:00:00 11.8 11 Nordeste 17 Nordeste 0 1020.3 -- 88
2020-11-30 21:00:00 12.1 9 Nordeste 15 Nordeste 0 1019.6 -- 87
2020-11-30 20:00:00 12 9 Este 24 Nordeste 0 1019.2 -- 86
2020-11-30 19:00:00 12.8 18 Nordeste 23 Nordeste 0 1019.4 -- 86
2020-11-30 18:00:00 12.8 15 Nordeste 22 Nordeste 0 1018.8 -- 87
2020-11-30 17:00:00 13 16 Nordeste 26 Nordeste 0 1018.3 -- 85
2020-11-30 16:00:00 13.4 16 Este 23 Nordeste 0 1018 -- 85
2020-11-30 15:00:00 13.8 17 Nordeste 23 Nordeste 0 1017.8 -- 85
2020-11-30 14:00:00 13.7 6 Nordeste 9 Nordeste 0 1018.1 -- 86
2020-11-30 13:00:00 13.4 0 Calma 6 Nordeste 0 1018.1 -- 85
2020-11-30 12:00:00 13.3 3 Nordeste 7 Nordeste 0 1018.2 -- 86
2020-11-30 11:00:00 12.8 5 Sur 14 Sudoeste 0 1017.9 -- 85
2020-11-30 10:00:00 12 11 Sur 17 Sudoeste 0 1017.5 -- 86
2020-11-30 09:00:00 11.2 13 Sur 18 Sur 0 1016.9 -- 88
2020-11-30 08:00:00 11.6 10 Sudoeste 15 Sudoeste 0 1016.2 -- 90
2020-11-30 07:00:00 11.6 9 Sudoeste 17 Sudoeste 0 1015.6 -- 91
2020-11-30 06:00:00 11.5 10 Sudoeste 13 Sudoeste 0 1015.1 -- 90
2020-11-30 05:00:00 12.1 8 Sur 11 Sudoeste 0 1014.5 -- 89
2020-11-30 04:00:00 12.3 6 Sudoeste 12 Sudoeste 0 1014.4 -- 90
2020-11-30 03:00:00 11.7 8 Sudoeste 10 Sudoeste 0 1014 -- 93
2020-11-30 02:00:00 12.2 4 Sudoeste 11 Sudoeste 0 1013.7 -- 93
2020-11-30 01:00:00 12.2 9 Sudoeste 12 Sur 0 1013.6 -- 93
2020-11-30 00:00:00 12.7 9 Sudeste 13 Este 0 1013 -- 94
2020-11-29 23:00:00 13.1 8 Sudeste 13 Este 0 1012.6 -- 94
2020-11-29 22:00:00 13 5 Sur 17 Este 0 1012.3 -- 93
2020-11-29 21:00:00 13.5 11 Este 15 Este 0 1011.7 -- 93
2020-11-29 20:00:00 13.8 8 Este 23 Este 0 1011.2 -- 92
2020-11-29 19:00:00 14.1 16 Este 31 Este 0 1010.4 -- 91
2020-11-29 18:00:00 14.5 22 Este 30 Este 0 1009.8 -- 90
2020-11-29 17:00:00 15 24 Este 30 Este 0 1009.1 -- 85
2020-11-29 16:00:00 15.9 18 Este 25 Este 0 1008.5 -- 79
2020-11-29 15:00:00 16.5 14 Este 21 Este 0 1008.4 -- 75
2020-11-29 14:00:00 16.8 12 Este 17 Este 0 1008.3 -- 72
2020-11-29 13:00:00 17 9 Este 13 Nordeste 0 1008.4 -- 66
2020-11-29 12:00:00 19.8 4 Este 13 Sudeste 0 1008.4 -- 50
2020-11-29 11:00:00 17.7 9 Sudeste 12 Este 0 1008.3 -- 57
2020-11-29 10:00:00 15.1 6 Este 11 Este 0 1007.5 -- 67
2020-11-29 09:00:00 13.7 8 Sudeste 22 Sur 0 1006.7 -- 68
2020-11-29 08:00:00 13 14 Sur 24 Sur 0 1005.5 -- 66
2020-11-29 07:00:00 13.9 17 Sur 25 Sur 0 1004.7 -- 62
2020-11-29 06:00:00 13.6 15 Sur 25 Sur 0 1004.4 -- 64
2020-11-29 05:00:00 13 12 Sudeste 23 Sudeste 0 1003.9 -- 66
2020-11-29 04:00:00 13.1 16 Sudeste 21 Sur 0 1003.5 -- 64
2020-11-29 03:00:00 13.7 16 Sur 22 Sudeste 0 1003.1 -- 63
2020-11-29 02:00:00 13.7 15 Sur 25 Sur 0 1002.8 -- 64
2020-11-29 01:00:00 13 16 Sudeste 23 Sur 0 1002.5 -- 68
2020-11-29 00:00:00 13.2 17 Sudeste 28 Sur 0 1002 -- 68
2020-11-28 23:00:00 12.7 16 Sudeste 26 Sudeste 0 1001.8 -- 72
2020-11-28 22:00:00 12.5 18 Sudeste 22 Sudeste 0 1001.1 -- 77
2020-11-28 21:00:00 12.5 15 Sudeste 18 Sur 0 1000.6 -- 82
2020-11-28 20:00:00 13.1 13 Este 18 Este 0 1000.2 -- 89
2020-11-28 19:00:00 13.3 5 Sudeste 18 Sudeste 0 999.5 -- 87
2020-11-28 18:00:00 13.9 13 Este 30 Este 0 998.8 -- 88
2020-11-28 17:00:00 15 12 Sudeste 27 Este 0 998.4 -- 84
2020-11-28 16:00:00 16 16 Este 26 Este 0 997.5 -- 79
2020-11-28 15:00:00 16.3 20 Este 29 Este 0 997.5 -- 78
2020-11-28 14:00:00 16.5 15 Este 21 Este 0 998.1 -- 72
2020-11-28 13:00:00 16.6 9 Este 14 Este 0 998.4 -- 66
2020-11-28 12:00:00 16.6 9 Este 16 Sudeste 0 999 -- 59
2020-11-28 11:00:00 16 3 Nordeste 15 Sudeste 0 999.1 -- 62
2020-11-28 10:00:00 14.7 8 Sudeste 13 Sur 0 999.2 -- 65
2020-11-28 09:00:00 11.3 12 Sur 14 Sur 0 999.3 -- 76
2020-11-28 08:00:00 12.4 3 Sur 12 Oeste 0 999 -- 67
2020-11-28 07:00:00 11.9 8 Sudoeste 14 Sur 0 998.9 -- 72
2020-11-28 06:00:00 11.8 9 Sur 12 Sudeste 0 999.2 -- 73
2020-11-28 05:00:00 12.4 11 Sudeste 12 Sudeste 0 999.4 -- 71
2020-11-28 04:00:00 12.5 9 Sudeste 14 Sudeste 0 1000.1 -- 71
2020-11-28 03:00:00 12.8 5 Sudeste 14 Sur 0 1000.2 -- 70
2020-11-28 02:00:00 12.5 13 Sur 18 Sudeste 0 1000.5 -- 74
2020-11-28 01:00:00 13.2 12 Sur 24 Sur 0 1001.1 -- 72
2020-11-28 00:00:00 13.6 17 Sudeste 24 Sudeste 0 1001.4 -- 73
2020-11-27 23:00:00 13.7 16 Sudeste 28 Sudeste 0 1001.5 -- 70
2020-11-27 22:00:00 14.1 19 Sudeste 26 Sudeste 0 1001.7 -- 69
2020-11-27 21:00:00 13.9 13 Sudeste 20 Sudeste 0 1001.9 -- 69
2020-11-27 20:00:00 14.2 10 Sudeste 16 Sudeste 0 1001.8 -- 69
2020-11-27 19:00:00 14.3 13 Sur 19 Sudeste 0 1001.9 -- 72
2020-11-27 18:00:00 15.2 14 Sur 16 Sur 0 1001.9 -- 67
2020-11-27 17:00:00 15.2 3 Noroeste 19 Sur 0 1002.3 -- 71
2020-11-27 16:00:00 15.3 11 Sur 14 Sudeste 0 1002.1 -- 71
2020-11-27 15:00:00 15.3 7 Sudeste 9 Sudeste 0 1002.5 -- 74
2020-11-27 14:00:00 16.3 4 Este 9 Oeste 0 1003.1 -- 73
2020-11-27 13:00:00 16.1 4 Este 10 Sur 0 1004 -- 69
2020-11-27 12:00:00 16.1 6 Sur 19 Sur 0 1004.8 -- 67
2020-11-27 11:00:00 15.2 13 Sur 19 Sudoeste 0 1005.1 -- 67
2020-11-27 10:00:00 14.2 4 Sudoeste 19 Sur 0 1005 -- 72
2020-11-27 09:00:00 13.4 3 Sudeste 22 Sur 0 1005.1 -- 72
2020-11-27 08:00:00 13.5 15 Sur 23 Sur 0 1004.9 -- 72
2020-11-27 07:00:00 14 14 Sur 21 Sudoeste 0 1004.8 -- 70
2020-11-27 06:00:00 14.1 14 Sudoeste 22 Sudoeste 0 1004.7 -- 69
2020-11-27 05:00:00 14.2 12 Sudoeste 20 Sudoeste 0 1004.5 -- 68
2020-11-27 04:00:00 14.4 11 Sudoeste 17 Sur 0 1005 -- 68
2020-11-27 03:00:00 14.4 11 Sudoeste 15 Sur 0 1005.1 -- 67
2020-11-27 02:00:00 14.3 11 Sur 17 Sudoeste 0 1005.2 -- 68
2020-11-27 01:00:00 14.7 10 Sudoeste 18 Sur 0 1005.6 -- 66
2020-11-27 00:00:00 14.6 15 Sur 19 Sur 0 1005.4 -- 67
2020-11-26 23:00:00 15 9 Sudoeste 14 Sur 0 1005.5 -- 65
2020-11-26 22:00:00 14.4 8 Sur 19 Sur 0 1005.3 -- 67
2020-11-26 21:00:00 13.7 12 Sur 18 Sudeste 0 1005.2 -- 73
2020-11-26 20:00:00 14.1 14 Sudeste 22 Sudeste 0 1005.1 -- 72
2020-11-26 19:00:00 14.6 13 Sudeste 21 Sudeste 0 1005 -- 72
2020-11-26 18:00:00 15.2 15 Sudeste 22 Sudeste 0 1004.8 -- 71
2020-11-26 17:00:00 15.5 12 Sudeste 17 Sur 0 1004.6 -- 71
2020-11-26 16:00:00 16.5 8 Sudeste 11 Sudeste 0 1004.2 -- 67
2020-11-26 15:00:00 16.7 6 Sudeste 11 Sudeste 0 1003.9 -- 65
2020-11-26 14:00:00 16.4 6 Este 10 Sudeste 0 1004.2 -- 67
2020-11-26 13:00:00 16.5 6 Este 9 Sudeste 0 1004.5 -- 67
2020-11-26 12:00:00 16 4 Oeste 7 Noroeste 0 1005.1 -- 63
2020-11-26 11:00:00 15.3 5 Sudoeste 8 Oeste 0 1005.1 -- 62
2020-11-26 10:00:00 13.9 6 Sur 10 Sur 0 1004.6 -- 65
2020-11-26 09:00:00 13.3 3 Sudeste 11 Nordeste 0 1004.3 -- 67
2020-11-26 08:00:00 13.6 5 Nordeste 13 Sudeste 0 1004.1 -- 63
2020-11-26 07:00:00 13.1 0 Calma 13 Este 0 1003.6 -- 64
2020-11-26 06:00:00 12.7 9 Sudeste 17 Sudeste 0 1003.2 -- 75
2020-11-26 05:00:00 12.6 8 Este 11 Sudeste 0 1003.3 -- 69
2020-11-26 04:00:00 12.7 5 Sudoeste 9 Sur 0 1003.6 -- 65
2020-11-26 03:00:00 12.5 7 Sudeste 10 Sudoeste 0 1003.5 -- 65
2020-11-26 02:00:00 11.9 4 Sur 10 Sur 0 1003.7 -- 71
2020-11-26 01:00:00 11.8 9 Sur 16 Sudeste 0 1003.8 -- 68
2020-11-26 00:00:00 11.1 11 Sudeste 14 Sudeste 0 1003.7 -- 70
2020-11-25 23:00:00 11.7 4 Sur 15 Sur 0 1004 -- 68
2020-11-25 22:00:00 11.8 13 Sur 18 Sur 0 1004 -- 69
2020-11-25 21:00:00 11.9 15 Sur 26 Sudeste 0 1003.9 -- 70
2020-11-25 20:00:00 12.7 18 Sur 22 Sur 0 1004 -- 73
2020-11-25 19:00:00 13.4 12 Sur 14 Este 0 1004.2 -- 83
2020-11-25 18:00:00 14 13 Este 23 Este 0 1003.8 -- 83
2020-11-25 17:00:00 14.5 17 Este 24 Nordeste 0 1003.9 -- 83
2020-11-25 16:00:00 15.4 19 Nordeste 25 Nordeste 0 1003.9 -- 81
2020-11-25 15:00:00 15.5 19 Nordeste 24 Nordeste 0 1004 -- 81
2020-11-25 14:00:00 15.8 15 Norte 19 Norte 0 1004.6 -- 72
2020-11-25 13:00:00 16.4 5 Noroeste 14 Oeste 0 1005.2 -- 61
2020-11-25 12:00:00 17.4 8 Oeste 22 Sudoeste 0 1005.8 -- 52
2020-11-25 11:00:00 16.4 12 Sudoeste 25 Sur 0 1005.9 -- 52
2020-11-25 10:00:00 14.9 18 Sudoeste 37 Sudoeste 0 1005.8 -- 54
2020-11-25 09:00:00 13.7 22 Sudoeste 40 Sur 0 1005.3 -- 58
2020-11-25 08:00:00 13.8 24 Sudoeste 39 Sur 0 1005 -- 57
2020-11-25 07:00:00 14.2 27 Sur 45 Sur 0 1004.5 -- 57
2020-11-25 06:00:00 14.6 27 Sur 52 Sur 0 1004.4 -- 58
2020-11-25 05:00:00 14.9 32 Sur 50 Sudoeste 0 1004.4 -- 58
2020-11-25 04:00:00 14.9 28 Sur 41 Sur 0 1004.8 -- 58
2020-11-25 03:00:00 14.9 23 Sur 34 Sur 0 1005.1 -- 58
2020-11-25 02:00:00 14.3 19 Sur 32 Sudoeste 0 1005.6 -- 58
2020-11-25 01:00:00 15.1 21 Sudoeste 37 Sudoeste 0 1006 -- 55
2020-11-25 00:00:00 14 15 Sur 25 Sur 0 1006.4 -- 62
2020-11-24 23:00:00 12 11 Sur 19 Sur 0 1007 -- 77
2020-11-24 22:00:00 12.3 12 Sudeste 18 Este 0 1007.7 -- 79
2020-11-24 21:00:00 12.7 14 Sudeste 20 Sur 0 1008.6 -- 76
2020-11-24 20:00:00 12.6 15 Sudeste 18 Sudeste 0 1008.9 -- 79
2020-11-24 19:00:00 13 12 Sudeste 15 Sudeste 0 1009.3 -- 82
2020-11-24 18:00:00 13.3 12 Sudeste 14 Sudeste 0 1009.6 -- 81
2020-11-24 17:00:00 14.5 10 Sudeste 12 Este 0 1009.7 -- 75
2020-11-24 16:00:00 16.4 5 Este 10 Este 0 1010 -- 70
2020-11-24 15:00:00 16.5 2 Oeste 15 Oeste 0 1010.6 -- 71
2020-11-24 14:00:00 16.1 13 Oeste 23 Oeste 0 1011.6 -- 72
2020-11-24 13:00:00 15.9 16 Oeste 23 Sudoeste 0 1012.6 -- 67
2020-11-24 12:00:00 15.3 13 Sudoeste 26 Sudoeste 0 1013.4 -- 58
2020-11-24 11:00:00 14.8 17 Sudoeste 32 Sudoeste 0 1013.4 -- 56
2020-11-24 10:00:00 13.7 17 Sudoeste 37 Sudoeste 0 1013 -- 48
2020-11-24 09:00:00 13.8 16 Sudoeste 33 Sudoeste 0 1012.4 -- 43
2020-11-24 08:00:00 13.9 17 Sudoeste 27 Sudoeste 0 1012 -- 34
2020-11-24 07:00:00 12.3 14 Sudoeste 23 Sudoeste 0 1012 -- 48
2020-11-24 06:00:00 10.4 13 Oeste 17 Sudoeste 0 1012.3 -- 70
2020-11-24 05:00:00 10.5 3 Oeste 12 Sudeste 0 1012.4 -- 67
2020-11-24 04:00:00 10.7 8 Sudeste 24 Sudeste 0 1013 -- 69
2020-11-24 03:00:00 10.9 18 Sudeste 23 Sudeste 0 1014.1 -- 67
2020-11-24 02:00:00 11.5 13 Sudeste 26 Este 0 1014.9 -- 66
2020-11-24 01:00:00 11.2 21 Sudeste 25 Sudeste 0 1015.8 -- 67
2020-11-24 00:00:00 11.5 15 Sudeste 21 Este 0 1016.4 -- 70
2020-11-23 23:00:00 12.4 19 Este 27 Este 0 1017.2 -- 77
2020-11-23 22:00:00 12.7 16 Este 34 Este 0 1017.9 -- 83
2020-11-23 21:00:00 13 23 Este 33 Este 0 1018.2 -- 84
2020-11-23 20:00:00 13 19 Este 32 Este 0 1018.7 -- 81
2020-11-23 19:00:00 13.3 24 Este 33 Este 0 1019 -- 80
2020-11-23 18:00:00 13.2 23 Este 32 Este 0 1019 -- 79
2020-11-23 17:00:00 13.6 15 Este 29 Este 0 1018.9 -- 75
2020-11-23 16:00:00 14.3 21 Este 26 Este 0 1019.2 -- 66
2020-11-23 15:00:00 14.9 19 Este 23 Este 0 1019.5 -- 66
2020-11-23 14:00:00 15.2 17 Este 23 Este 0 1020.2 -- 64
2020-11-23 13:00:00 14.7 16 Este 22 Este 0 1021 -- 71
2020-11-23 12:00:00 13.7 7 Nordeste 15 Sudeste 0 1022.1 -- 71
2020-11-23 11:00:00 14 10 Sudeste 15 Sudeste 0 1021.9 -- 70
2020-11-23 10:00:00 12.2 9 Sur 12 Sur 0 1021.9 -- 78
2020-11-23 09:00:00 10.3 10 Sur 15 Sur 0 1021.7 -- 83
2020-11-23 08:00:00 9.6 10 Sur 16 Sudeste 0 1021.4 -- 85
2020-11-23 07:00:00 9.1 15 Sur 17 Sur 0 1021.3 -- 87
2020-11-23 06:00:00 9.5 12 Sur 14 Sur 0 1021.3 -- 89
2020-11-23 05:00:00 10.3 0 Calma 9 Sur 0 1021.5 -- 89
2020-11-23 04:00:00 9.7 10 Sur 14 Sur 0 1021.8 -- 89
2020-11-23 03:00:00 10.1 10 Sur 12 Sur 0 1021.8 -- 88
2020-11-23 02:00:00 10.5 8 Sur 10 Sur 0 1022 -- 90
2020-11-23 01:00:00 11 8 Sur 13 Sur 0 1022.1 -- 91
2020-11-23 00:00:00 10.8 12 Sur 13 Sur 0 1022.1 -- 90
2020-11-22 23:00:00 12.2 5 Sudoeste 9 Sudoeste 0 1022.1 -- 88
2020-11-22 22:00:00 12.2 7 Sudoeste 8 Sudoeste 0 1022 -- 87
2020-11-22 21:00:00 12.5 4 Sudoeste 7 Oeste 0 1021.7 -- 87
2020-11-22 20:00:00 12.7 6 Sudoeste 9 Sudoeste 0 1021.5 -- 86
2020-11-22 19:00:00 12.8 6 Sudoeste 12 Noroeste 0 1021.1 -- 82
2020-11-22 18:00:00 13 11 Noroeste 15 Noroeste 0 1020.7 -- 82
2020-11-22 17:00:00 13.6 9 Noroeste 13 Oeste 0 1020.2 -- 82
2020-11-22 16:00:00 14.8 9 Noroeste 13 Oeste 0 1019.7 -- 79
2020-11-22 15:00:00 14.9 9 Noroeste -- -- -- 1020 -- 78
2020-11-22 14:00:00 -- -- -- -- -- -- -- -- --
2020-11-22 13:00:00 14.9 11 Oeste 18 Oeste 0 1020.9 -- 76
2020-11-22 12:00:00 14.5 11 Oeste 17 Oeste 0 1021.3 -- 74
2020-11-22 11:00:00 13 10 Sudoeste 17 Sudoeste 0 1021.2 -- 73
2020-11-22 10:00:00 11.8 10 Sudoeste 17 Sur 0 1020.8 -- 77
2020-11-22 09:00:00 10.3 10 Sudoeste 17 Sudoeste 0 1020.5 -- 82
2020-11-22 08:00:00 9.2 12 Sudoeste 16 Sudoeste 0 1019.8 -- 81
2020-11-22 07:00:00 8.6 12 Sudoeste 16 Sudoeste 0 1019.4 -- 78
2020-11-22 06:00:00 8.9 9 Sudoeste 12 Sudoeste 0 1019.1 -- 75
2020-11-22 05:00:00 9.2 6 Sudoeste 9 Sudoeste 0 1018.8 -- 76
2020-11-22 04:00:00 8.9 3 Sudoeste 9 Oeste 0 1018.6 -- 79
2020-11-22 03:00:00 8.6 4 Sudeste 14 Sudeste 0 1018.3 -- 81
2020-11-22 02:00:00 8.3 9 Sudeste 20 Sudeste 0 1018.4 -- 80
2020-11-22 01:00:00 9.8 15 Sudeste 31 Este 0 1018.6 -- 77
2020-11-22 00:00:00 9.7 18 Sudeste 30 Este 0 1018.9 -- 77
2020-11-21 23:00:00 9.8 21 Sudeste 29 Sudeste 0 1019.3 -- 79
2020-11-21 22:00:00 10.4 20 Este 27 Este 0 1019.8 -- 77
2020-11-21 21:00:00 10.9 17 Este 40 Este 0 1020.3 -- 74
2020-11-21 20:00:00 11.7 28 Este 41 Este 0 1020.3 -- 73
2020-11-21 19:00:00 11.6 28 Este 47 Este 0 1020.6 -- 71
2020-11-21 18:00:00 11.6 29 Este 46 Este 0 1020.6 -- 69
2020-11-21 17:00:00 11.8 35 Este 50 Este 0 1020.4 -- 67
2020-11-21 16:00:00 12.6 32 Este 46 Este 0 1020.5 -- 65
2020-11-21 15:00:00 12.9 33 Este 48 Este 0 1020.7 -- 64
2020-11-21 14:00:00 12.7 35 Este 53 Este 0 1021 -- 59
2020-11-21 13:00:00 13 30 Este 51 Este 0 1022 -- 54
2020-11-21 12:00:00 12.6 40 Este 56 Este 0 1022.7 -- 52
2020-11-21 11:00:00 12.3 38 Este 51 Este 0 1023.2 -- 56
2020-11-21 10:00:00 11.6 37 Este 46 Este 0 1023.4 -- 57
2020-11-21 09:00:00 10.4 28 Este 44 Este 0 1023.4 -- 66
2020-11-21 08:00:00 10 26 Este 46 Este 0 1023.7 -- 70
2020-11-21 07:00:00 10.4 35 Este 48 Este 0 1023.5 -- 72
2020-11-21 06:00:00 10.7 36 Este 45 Este 0 1023.4 -- 76
2020-11-21 05:00:00 10.8 30 Este 40 Este 0 1023.5 -- 75
2020-11-21 04:00:00 10.8 27 Este 40 Este 0 1023.9 -- 72
2020-11-21 03:00:00 10.1 16 Sudeste 27 Sudeste 0 1024.3 -- 75
2020-11-21 02:00:00 10.4 18 Sudeste 33 Este 0 1025.1 -- 73
2020-11-21 01:00:00 10.5 21 Sudeste 33 Este 0 1025.9 -- 74
2020-11-21 00:00:00 10.4 20 Sudeste 31 Sudeste 0 1026.2 -- 76
2020-11-20 23:00:00 10.2 21 Sudeste 30 Sudeste 0 1026.4 -- 76
2020-11-20 22:00:00 10.6 18 Sudeste 30 Este 0 1026.9 -- 76
2020-11-20 21:00:00 11.2 17 Este 32 Este 0 1027.4 -- 77
2020-11-20 20:00:00 11.7 19 Este 35 Este 0 1027.6 -- 77
2020-11-20 19:00:00 12.2 25 Este 37 Este 0 1027.6 -- 77
2020-11-20 18:00:00 12.3 21 Este 30 Este 0 1027.3 -- 77
2020-11-20 17:00:00 13 15 Este 27 Este 0 1027 -- 73
2020-11-20 16:00:00 13.9 19 Nordeste 27 Este 0 1027.5 -- 66
2020-11-20 15:00:00 14.4 17 Este -- -- -- 1027.8 -- 69
2020-11-20 14:00:00 14.8 13 Este -- -- -- 1028 -- 69
2020-11-20 13:00:00 15.6 8 Sudeste -- -- -- 1029 -- 66
2020-11-20 12:00:00 14.6 3 Nordeste 13 Sur 0 1030.3 -- 70
2020-11-20 11:00:00 12.2 10 Sur 14 Sur 0 1030.1 -- 86
2020-11-20 10:00:00 11.1 10 Sur 17 Sudeste 0 1030.2 -- 88
2020-11-20 09:00:00 11 10 Sur 14 Sudoeste 0 1030.1 -- 85
2020-11-20 08:00:00 10.8 11 Sur 13 Sudoeste 0 1029.9 -- 85
2020-11-20 07:00:00 10.9 10 Sur 12 Sudoeste 0 1029.7 -- 88
2020-11-20 06:00:00 11.2 6 Sur 8 Sudoeste 0 1030 -- 88
2020-11-20 05:00:00 11.4 6 Sudoeste 12 Sur 0 1030.2 -- 86
2020-11-20 04:00:00 11.3 10 Sur 13 Sudoeste 0 1030.4 -- 84
2020-11-20 03:00:00 11.5 5 Sudoeste 8 Sudoeste 0 1030.9 -- 83
2020-11-20 02:00:00 11.7 7 Sur 14 Sudoeste 0 1031.1 -- 82
2020-11-20 01:00:00 11.8 9 Sudoeste 15 Sudoeste 0 1031.4 -- 82
2020-11-20 00:00:00 11.8 10 Sur 13 Sur 0 1031.7 -- 84
2020-11-19 23:00:00 12 8 Sur 11 Sur 0 1031.9 -- 83
2020-11-19 22:00:00 12.3 8 Sudoeste 12 Sudoeste 0 1031.7 -- 81
2020-11-19 21:00:00 12 8 Sudoeste 15 Sur 0 1031.5 -- 83
2020-11-19 20:00:00 12 10 Sur 16 Sur 0 1031.2 -- 82
2020-11-19 19:00:00 12.6 4 Sudeste 14 Sur 0 1031.4 -- 74
2020-11-19 18:00:00 13 4 Sur 19 Nordeste 0 1031.2 -- 73
2020-11-19 17:00:00 13.1 9 Nordeste 30 Nordeste 0 1031.2 -- 73
2020-11-19 16:00:00 13.3 11 Norte 28 Norte 0 1031.3 -- 75
2020-11-19 15:00:00 13.7 16 Norte 28 Nordeste 0 1030.9 -- 73
2020-11-19 14:00:00 13.5 15 Norte 28 Norte 0 1030.3 -- 80
2020-11-19 13:00:00 13.7 9 Nordeste 24 Norte 0 1030.4 -- 86
2020-11-19 12:00:00 13.1 21 Norte 31 Norte 0.2 1030.8 -- 90
2020-11-19 11:00:00 13.4 19 Norte 30 Norte 0 1030.6 -- 89
2020-11-19 10:00:00 13.2 15 Norte 29 Norte 0 1030.1 -- 93
2020-11-19 09:00:00 13.1 21 Norte 31 Norte 0.2 1029.7 -- 96
2020-11-19 08:00:00 13.2 25 Norte 33 Norte 0.2 1028.5 -- 97
2020-11-19 07:00:00 13.6 30 Norte 37 Norte 0.6 1027.2 -- 95
2020-11-19 06:00:00 14.7 21 Norte 27 Norte 0 1026.3 -- 95
2020-11-19 05:00:00 15 12 Norte 24 Norte 0 1025.8 -- 95
2020-11-19 04:00:00 15.5 19 Norte 30 Norte 0 1025.2 -- 94
2020-11-19 03:00:00 16 15 Oeste 26 Oeste 0 1024.3 -- 90
2020-11-19 02:00:00 15.1 15 Oeste 24 Oeste 0 1023.5 -- 84
2020-11-19 01:00:00 14.9 14 Oeste 22 Sudoeste 0 1023 -- 80
2020-11-19 00:00:00 16 14 Sudoeste 19 Sudoeste 0 1022.2 -- 76
2020-11-18 23:00:00 16.4 11 Sudoeste 14 Sudoeste 0 1021.9 -- 75
2020-11-18 22:00:00 16.6 5 Sudoeste 12 Este 0 1021.1 -- 75
2020-11-18 21:00:00 16.7 9 Sudeste 15 Sudeste 0 1020 -- 74
2020-11-18 20:00:00 16.7 12 Sudeste 17 Este 0 1019.6 -- 76
2020-11-18 19:00:00 17.1 10 Este 18 Este 0 1018.8 -- 78
2020-11-18 18:00:00 17.3 13 Este 28 Este 0 1017.9 -- 75
2020-11-18 17:00:00 17.3 20 Este 30 Este 0 1017.2 -- 80
2020-11-18 16:00:00 18 18 Este 24 Este 0 1016.8 -- 78
2020-11-18 15:00:00 19.1 14 Este 20 Este 0 1016.7 -- 64
2020-11-18 14:00:00 19.7 13 Este 19 Este 0 1016.8 -- 64
2020-11-18 13:00:00 19.7 13 Este 16 Este 0 1017.2 -- 57
2020-11-18 12:00:00 19.1 9 Este 12 Este 0 1017.4 -- 65
2020-11-18 11:00:00 19.6 5 Noroeste 10 Sur 0 1017.2 -- 61
2020-11-18 10:00:00 18.7 4 Nordeste 13 Sudoeste 0 1016.5 -- 57
2020-11-18 09:00:00 18.9 6 Sur 15 Sur 0 1015.7 -- 50
2020-11-18 08:00:00 18.1 4 Oeste -- -- -- 1015 -- 55
2020-11-18 07:00:00 19.3 21 Sudoeste 29 Sudoeste 0 1014.1 -- 45
2020-11-18 06:00:00 19.2 19 Sudoeste 30 Sudoeste 0 1013.7 -- 46
2020-11-18 05:00:00 19.1 15 Sudoeste 25 Sudoeste 0 1013.4 -- 47
2020-11-18 04:00:00 18.5 14 Sudoeste 20 Sudoeste 0 1013.3 -- 50
2020-11-18 03:00:00 15.9 15 Oeste 19 Oeste 0 1013.3 -- 72
2020-11-18 02:00:00 18.8 6 Sudoeste 19 Sudoeste 0 1013.5 -- 40
2020-11-18 01:00:00 17.4 12 Sur 18 Sur 0 1013.7 -- 43
2020-11-18 00:00:00 16.9 2 Oeste 15 Sur 0 1013.9 -- 50
2020-11-17 23:00:00 17.7 8 Sur 11 Sur 0 1014.1 -- 55
2020-11-17 22:00:00 15.7 6 Sudeste 11 Sudeste 0 1014.2 -- 77
2020-11-17 21:00:00 15 6 Sudeste 14 Sur 0 1014.3 -- 88
2020-11-17 20:00:00 14.2 4 Sudeste 11 Este 0 1014.5 -- 91
2020-11-17 19:00:00 14.9 4 Este 10 Sudeste 0 1014.3 -- 89
2020-11-17 18:00:00 15 7 Este 13 Este 0 1014.4 -- 88
2020-11-17 17:00:00 15.8 8 Este 20 Este 0 1014.5 -- 84
2020-11-17 16:00:00 17 12 Este 21 Este 0 1014.6 -- 80
2020-11-17 15:00:00 16.9 16 Este 23 Este 0 1015.2 -- 78
2020-11-17 14:00:00 16.8 13 Este 18 Este 0 1016 -- 71
2020-11-17 13:00:00 16.5 9 Este 16 Sudeste 0 1016.6 -- 71
2020-11-17 12:00:00 15.8 10 Sudeste 19 Sudeste 0 1017.4 -- 73
2020-11-17 11:00:00 14.4 12 Este 17 Sudeste 0 1017.7 -- 78
2020-11-17 10:00:00 13 12 Sudeste 15 Sudeste 0 1018 -- 87
2020-11-17 09:00:00 10.5 11 Sudeste 13 Sudeste 0 1017.9 -- 93
2020-11-17 08:00:00 10 3 Sur 9 Sur 0 1017.7 -- 92
2020-11-17 07:00:00 10.7 3 Este 5 Sur 0 1017.5 -- 93
2020-11-17 06:00:00 10.5 2 Este 11 Sur 0 1017.6 -- 94
2020-11-17 05:00:00 9.9 10 Sudeste 12 Sudeste 0 1017.4 -- 94
2020-11-17 04:00:00 10.1 7 Sur 12 Sur 0 1018 -- 93
2020-11-17 03:00:00 10.6 7 Sur 13 Sur 0 1018.6 -- 92
2020-11-17 02:00:00 11.3 9 Sur 11 Sur 0 1019.2 -- 89
2020-11-17 01:00:00 11.4 6 Sudeste 17 Sudeste 0 1019.6 -- 88
2020-11-17 00:00:00 11.4 12 Sudeste 18 Sudeste 0 1019.6 -- 89
2020-11-16 23:00:00 11.6 12 Sudeste 17 Sudeste 0 1019.9 -- 90
2020-11-16 22:00:00 12.2 13 Sudeste 19 Sudeste 0 1019.8 -- 88
2020-11-16 21:00:00 12.9 11 Sudeste 17 Este 0 1020 -- 87
2020-11-16 20:00:00 13.3 12 Este 16 Este 0 1019.7 -- 85
2020-11-16 19:00:00 13.2 10 Este 14 Este 0 1019.7 -- 84
2020-11-16 18:00:00 13.7 7 Este 14 Este 0 1019.6 -- 81
2020-11-16 17:00:00 14.7 9 Este 14 Este 0 1019.4 -- 79
2020-11-16 16:00:00 15.4 10 Nordeste 13 Nordeste 0 1019.2 -- 75
2020-11-16 15:00:00 15.9 5 Nordeste 11 Norte 0 1018.9 -- 73
2020-11-16 14:00:00 15.9 5 Norte 13 Noroeste 0 1019.3 -- 75
2020-11-16 13:00:00 15.3 8 Oeste 16 Noroeste 0 1019.4 -- 77
2020-11-16 12:00:00 14.7 6 Sur 14 Norte 0.2 1019.6 -- 85
2020-11-16 11:00:00 14.2 5 Sudoeste 15 Sudoeste 0 1019.7 -- 85
2020-11-16 10:00:00 13.8 10 Sudoeste 16 Sudoeste 0 1019.4 -- 88
2020-11-16 09:00:00 13 9 Sudoeste 17 Sudoeste 0 1018.6 -- 91
2020-11-16 08:00:00 13 11 Sudoeste 15 Sudoeste 0 1018.2 -- 93
2020-11-16 07:00:00 13 9 Oeste 14 Oeste 0 1018 -- 93
2020-11-16 06:00:00 12.9 8 Oeste 16 Sur 0 1017.3 -- 93
2020-11-16 05:00:00 12.8 11 Sudoeste 17 Sudoeste 0.2 1016.8 -- 93
2020-11-16 04:00:00 12.9 8 Oeste 25 Oeste 0.4 1017.2 -- 93
2020-11-16 03:00:00 13 12 Sudoeste 30 Noroeste 0 1016.4 -- 91
2020-11-16 02:00:00 12.9 18 Oeste 35 Oeste 0 1016.3 -- 93
2020-11-16 01:00:00 13.6 21 Oeste 35 Oeste 0 1015.9 -- 93
2020-11-16 00:00:00 13.2 14 Sudoeste 27 Oeste 0.2 1015.3 -- 95
2020-11-15 23:00:00 13.1 10 Sudoeste 22 Sudoeste 0.6 1015.2 -- 95
2020-11-15 22:00:00 13.3 13 Sudoeste 27 Oeste 0.4 1014.5 -- 95
2020-11-15 21:00:00 13.5 18 Oeste 28 Oeste 0 1013.7 -- 95
2020-11-15 20:00:00 13.5 13 Sudoeste 29 Noroeste 0.4 1013 -- 95
2020-11-15 19:00:00 13.3 23 Noroeste 44 Noroeste 0.8 1012.2 -- 95
2020-11-15 18:00:00 14.1 24 Noroeste 41 Noroeste 1.4 1011 -- 95
2020-11-15 17:00:00 14.5 30 Oeste 44 Oeste 0.4 1010.2 -- 94
2020-11-15 16:00:00 14.8 27 Oeste 44 Noroeste 0 1009.6 -- 93
2020-11-15 15:00:00 14.4 30 Oeste 51 Noroeste 0.2 1009 -- 94
2020-11-15 14:00:00 15.4 32 Noroeste 45 Oeste 0 1008.4 -- 92
2020-11-15 13:00:00 16.4 25 Noroeste 40 Noroeste 0 1007.5 -- 86
2020-11-15 12:00:00 19.8 25 Noroeste 42 Sur 0 1006.3 -- 65
2020-11-15 11:00:00 21.3 26 Sur 53 Sur 0 1004.6 -- 57
2020-11-15 10:00:00 20.8 30 Sur 50 Sur 0 1004.1 -- 57
2020-11-15 09:00:00 20.4 32 Sur 52 Sur 0 1004 -- 58
2020-11-15 08:00:00 20.1 33 Sur 54 Sur 0 1003.9 -- 57
2020-11-15 07:00:00 20 35 Sur 55 Sur 0 1003.6 -- 58
2020-11-15 06:00:00 19.6 30 Sur 51 Sur 0 1003.7 -- 59
2020-11-15 05:00:00 19.9 31 Sur 54 Sur 0 1004 -- 58
2020-11-15 04:00:00 19.8 35 Sur 53 Sur 0 1004.4 -- 57
2020-11-15 03:00:00 19.7 31 Sur 48 Sur 0 1004.8 -- 57
2020-11-15 02:00:00 19.6 27 Sur 42 Sur 0 1005.3 -- 56
2020-11-15 01:00:00 19.6 24 Sur 41 Sur 0 1006 -- 54
2020-11-15 00:00:00 19.4 23 Sur 37 Sur 0 1006.5 -- 54
2020-11-14 23:00:00 19.3 26 Sur 42 Sur 0 1006.8 -- 55
2020-11-14 22:00:00 19.1 24 Sur 40 Sur 0 1006.9 -- 58
2020-11-14 21:00:00 18.8 24 Sur 37 Sur 0 1006.9 -- 58
2020-11-14 20:00:00 19 23 Sur 36 Sur 0 1007.2 -- 56
2020-11-14 19:00:00 19.2 24 Sur 38 Sur 0 1007 -- 54
2020-11-14 18:00:00 19.2 24 Sur 39 Sur 0 1006.7 -- 55
2020-11-14 17:00:00 20 24 Sur 40 Sur 0 1006.5 -- 53
2020-11-14 16:00:00 21.3 17 Sur 37 Sudoeste 0 1006.3 -- 48
2020-11-14 15:00:00 21.8 21 Sur 37 Sur 0 1006.3 -- 45
2020-11-14 14:00:00 22.3 22 Sur 40 Sur 0 1006.5 -- 44
2020-11-14 13:00:00 22.5 24 Sur 39 Sur 0 1006.7 -- 42
2020-11-14 12:00:00 21.7 22 Sur 39 Sur 0 1007.3 -- 43
2020-11-14 11:00:00 20.9 19 Sur 32 Sur 0 1007.5 -- 45
2020-11-14 10:00:00 19.5 19 Sur 30 Sur 0 1007.7 -- 47
2020-11-14 09:00:00 17.4 17 Sur 26 Sur 0 1007.8 -- 48
2020-11-14 08:00:00 16.4 18 Sur 31 Sur 0 1007.6 -- 52
2020-11-14 07:00:00 16.9 22 Sur 32 Sur 0 1007.8 -- 49
2020-11-14 06:00:00 16.4 21 Sur 30 Sur 0 1007.7 -- 52
2020-11-14 05:00:00 16.3 16 Sudoeste 28 Sudoeste 0 1007.7 -- 53
2020-11-14 04:00:00 14 11 Sudoeste 21 Sudoeste 0 1008.2 -- 60
2020-11-14 03:00:00 17.1 12 Sudoeste 37 Sur 0 1008 -- 49
2020-11-14 02:00:00 17.3 20 Sur 32 Sudoeste 0 1008.2 -- 47
2020-11-14 01:00:00 15.7 6 Sudoeste 9 Sudoeste 0 1008.8 -- 56
2020-11-14 00:00:00 16.2 6 Sudoeste 14 Sudoeste 0 1009.2 -- 57
2020-11-13 23:00:00 14.4 5 Sur 15 Sur 0 1009.4 -- 72
2020-11-13 22:00:00 14.4 11 Sudeste 15 Sudeste 0 1009.6 -- 77
2020-11-13 21:00:00 14.9 12 Sudeste 25 Este 0 1009.9 -- 82
2020-11-13 20:00:00 16 19 Este 29 Sudeste 0 1010.1 -- 80
2020-11-13 19:00:00 16.1 17 Este 26 Este 0 1010 -- 80
2020-11-13 18:00:00 16.3 15 Este 25 Este 0 1009.8 -- 80
2020-11-13 17:00:00 16.7 18 Este 33 Este 0 1009.9 -- 75
2020-11-13 16:00:00 17.9 17 Este 28 Este 0 1010.1 -- 74
2020-11-13 15:00:00 18.6 17 Este 27 Este 0 1010.5 -- 70
2020-11-13 14:00:00 18.8 18 Este 24 Este 0 1010.7 -- 73
2020-11-13 13:00:00 18.9 8 Nordeste 14 Este 0 1011.3 -- 72
2020-11-13 12:00:00 21.3 8 Sudeste 14 Sur 0 1011.9 -- 53
2020-11-13 11:00:00 19.2 11 Sur 15 Sur 0 1012.1 -- 55
2020-11-13 10:00:00 18.4 12 Sur 17 Sur 0 1012.1 -- 56
2020-11-13 09:00:00 17.5 13 Sudoeste 20 Sudoeste 0 1012 -- 55
2020-11-13 08:00:00 17.2 14 Sur 20 Sudoeste 0 1011.5 -- 57
2020-11-13 07:00:00 17.5 14 Sudoeste 23 Sudoeste 0 1011.3 -- 58
2020-11-13 06:00:00 17 13 Sudoeste 24 Sudoeste 0 1011 -- 62
2020-11-13 05:00:00 15.7 14 Sudoeste 29 Oeste 0 1010.5 -- 78
2020-11-13 04:00:00 16.5 16 Oeste 27 Oeste 0 1010.2 -- 73
2020-11-13 03:00:00 16.8 15 Sudoeste 24 Sudoeste 0 1009.8 -- 66
2020-11-13 02:00:00 17.2 15 Sudoeste 21 Oeste 0 1009.5 -- 45
2020-11-13 01:00:00 18.1 11 Sudoeste 19 Sur 0 1009.8 -- 62
2020-11-13 00:00:00 17.3 6 Sur 20 Sur 0 1009.8 -- 51
2020-11-12 23:00:00 17.7 15 Sur 23 Sur 0 1010 -- 54
2020-11-12 22:00:00 14.8 14 Sudeste 18 Sudeste 0 1009.9 -- 78
2020-11-12 21:00:00 14.6 6 Sudeste 19 Sudeste 0 1010.1 -- 79
2020-11-12 20:00:00 15 17 Sudeste 27 Este 0 1010.2 -- 77
2020-11-12 19:00:00 15.1 15 Sudeste 28 Este 0 1010.5 -- 84
2020-11-12 18:00:00 15.7 17 Este 30 Este 0 1010.8 -- 87
2020-11-12 17:00:00 16.3 20 Este 25 Este 0 1011 -- 83
2020-11-12 16:00:00 17.4 15 Este 20 Este 0 1011.5 -- 81
2020-11-12 15:00:00 18.2 10 Este 13 Este 0 1011.9 -- 76
2020-11-12 14:00:00 18.1 6 Este 9 Este 0 1012.7 -- 79
2020-11-12 13:00:00 17.3 6 Norte 9 Nordeste 0 1013.5 -- 82
2020-11-12 12:00:00 17.4 9 Norte 14 Norte 0 1014.3 -- 82
2020-11-12 11:00:00 16.9 11 Noroeste 14 Norte 0 1014.7 -- 85
2020-11-12 10:00:00 16.4 4 Noroeste 9 Oeste 0 1014.5 -- 81
2020-11-12 09:00:00 15.5 5 Oeste 8 Oeste 0 1014.4 -- 71
2020-11-12 08:00:00 15.3 3 Nordeste 8 Oeste 0 1013.8 -- 63
2020-11-12 07:00:00 14.8 4 Sur 13 Sur 0 1013.5 -- 65
2020-11-12 06:00:00 15.3 5 Sudeste 8 Sudeste 0 1013.3 -- 63
2020-11-12 05:00:00 15.1 3 Este 5 Sudeste 0 1013.6 -- 63
2020-11-12 04:00:00 15.6 3 Norte 5 Norte 0 1013.6 -- 63
2020-11-12 03:00:00 16.2 4 Noroeste 18 Sudoeste 0 1013.7 -- 59
2020-11-12 02:00:00 16.9 15 Sur 20 Sur 0 1013.8 -- 52
2020-11-12 01:00:00 17 14 Sur 19 Sur 0 1013.9 -- 52
2020-11-12 00:00:00 15.5 11 Sudoeste 23 Sudoeste 0 1013.8 -- 75
2020-11-11 23:00:00 15.8 17 Sudoeste 24 Sudoeste 0 1013.7 -- 61
2020-11-11 22:00:00 15.9 11 Oeste 15 Oeste 0 1013.3 -- 57
2020-11-11 21:00:00 16.8 10 Sudoeste 16 Sudoeste 0 1012.5 -- 54
2020-11-11 20:00:00 15 11 Sur 14 Sur 0 1011.9 -- 78
2020-11-11 19:00:00 14.8 7 Sudeste 15 Este 0 1012 -- 83
2020-11-11 18:00:00 14.5 5 Este 13 Sudeste 0 1011.7 -- 87
2020-11-11 17:00:00 15.3 5 Nordeste 9 Este 0 1011.9 -- 88
2020-11-11 16:00:00 15.5 5 Norte 9 Oeste 0 1011.7 -- 85
2020-11-11 15:00:00 15.9 8 Oeste 20 Noroeste 0 1011.5 -- 80
2020-11-11 14:00:00 17 13 Oeste 17 Oeste 0 1012.2 -- 73
2020-11-11 13:00:00 16.3 6 Noroeste 11 Este 0 1012.4 -- 74
2020-11-11 12:00:00 16.9 5 Oeste 12 Sudoeste 0 1013.1 -- 69
2020-11-11 11:00:00 16 2 Nordeste 6 Sur 0 1013.4 -- 75
2020-11-11 10:00:00 14.4 5 Oeste 11 Sudoeste 0 1013.9 -- 66
2020-11-11 09:00:00 13.4 4 Sur 13 Sur 0 1014.2 -- 69
2020-11-11 08:00:00 12.1 8 Sur 12 Sur 0 1014.2 -- 72
2020-11-11 07:00:00 12.3 5 Oeste 8 Sudoeste 0 1014.5 -- 75
2020-11-11 06:00:00 12.2 3 Sudeste 4 Sudeste 0 1014.9 -- 86
2020-11-11 05:00:00 12.2 2 Sudeste 9 Sur 0 1015.4 -- 83
2020-11-11 04:00:00 11.8 4 Sur 7 Sur 0 1015.9 -- 82
2020-11-11 03:00:00 12.7 3 Oeste 7 Sur 0 1016.6 -- 81
2020-11-11 02:00:00 12.7 5 Sudoeste 8 Sudoeste 0 1017.2 -- 90
2020-11-11 01:00:00 13 3 Oeste 5 Oeste 0 1018.2 -- 92
2020-11-11 00:00:00 13.2 3 Oeste 10 Sur 0 1018.5 -- 92
2020-11-10 23:00:00 13.2 10 Sudeste 13 Sur 0 1018.9 -- 92
2020-11-10 22:00:00 13.2 9 Sur 17 Sudeste 0 1019.3 -- 92
2020-11-10 21:00:00 13.6 14 Sudeste 23 Sudeste 0 1019 -- 92
2020-11-10 20:00:00 13.6 15 Sudeste 24 Este 0 1019.2 -- 91
2020-11-10 19:00:00 14.4 17 Este 27 Este 0 1019.1 -- 90
2020-11-10 18:00:00 14.8 21 Este 32 Este 0 1019.4 -- 88
2020-11-10 17:00:00 15.3 19 Este 29 Este 0 1019.5 -- 85
2020-11-10 16:00:00 15.8 22 Este 27 Este 0 1019.6 -- 84
2020-11-10 15:00:00 16.7 14 Este 18 Este 0 1019.8 -- 82
2020-11-10 14:00:00 16.7 9 Nordeste 11 Nordeste 0 1020.6 -- 79
2020-11-10 13:00:00 17.8 6 Nordeste 9 Nordeste 0 1021.1 -- 75
2020-11-10 12:00:00 16.3 3 Norte 8 Oeste 0 1021.5 -- 78
2020-11-10 11:00:00 15.7 5 Sudoeste 11 Sur 0 1021.8 -- 84
2020-11-10 10:00:00 14.6 7 Sudoeste 14 Sudoeste 0 1021.3 -- 89
2020-11-10 09:00:00 13.7 10 Sudoeste 17 Sudoeste 0 1020.8 -- 91
2020-11-10 08:00:00 13.3 14 Sur 17 Sudoeste 0 1020 -- 93
2020-11-10 07:00:00 13.4 10 Sudoeste 16 Sudoeste 0 1019.7 -- 94
2020-11-10 06:00:00 13.6 9 Sudoeste 15 Sudoeste 0 1019.9 -- 94
2020-11-10 05:00:00 13.5 10 Sudoeste 15 Sudoeste 0 1019.4 -- 95
2020-11-10 04:00:00 13.4 10 Sudoeste 17 Sudoeste 0.2 1019.2 -- 95
2020-11-10 03:00:00 13.6 10 Sudoeste 17 Oeste 0.2 1019.2 -- 94
2020-11-10 02:00:00 14.1 9 Sudoeste 22 Oeste 0.4 1019 -- 93
2020-11-10 01:00:00 14.8 8 Oeste 11 Oeste 0 1018.8 -- 91
2020-11-10 00:00:00 14.6 8 Sudoeste 12 Sudoeste 0 1018.5 -- 92
2020-11-09 23:00:00 14.8 9 Oeste 11 Oeste 0 1018.4 -- 91
2020-11-09 22:00:00 15 8 Oeste 14 Oeste 0 1018.1 -- 91
2020-11-09 21:00:00 15.5 9 Oeste 10 Oeste 0 1017.5 -- 89
2020-11-09 20:00:00 15.8 6 Nordeste 22 Noroeste 0.2 1017 -- 86
2020-11-09 19:00:00 16 14 Noroeste 19 Noroeste 0 1016.4 -- 91
2020-11-09 18:00:00 15.8 13 Oeste 18 Oeste 0 1015.6 -- 86
2020-11-09 17:00:00 16.9 9 Oeste 13 Oeste 0 1014.8 -- 81
2020-11-09 16:00:00 17.7 3 Norte 11 Noroeste 0 1014 -- 73
2020-11-09 15:00:00 17.8 5 Nordeste 8 Nordeste 0 1013.6 -- 74
2020-11-09 14:00:00 18.4 7 Nordeste 12 Este 0 1013.3 -- 71
2020-11-09 13:00:00 19.4 6 Nordeste 18 Sudoeste 0 1013.2 -- 55
2020-11-09 12:00:00 21.2 9 Sudoeste 23 Sudoeste 0 1013.2 -- 45
2020-11-09 11:00:00 19.5 15 Sudoeste 28 Sudoeste 0 1012.8 -- 49
2020-11-09 10:00:00 18 16 Sudoeste 28 Sur 0 1012.5 -- 53
2020-11-09 09:00:00 16.4 18 Sur 27 Sur 0 1012 -- 57
2020-11-09 08:00:00 16.3 20 Sur 28 Sur 0 1011.1 -- 57
2020-11-09 07:00:00 16.4 17 Sur 37 Sur 0 1010.7 -- 59
2020-11-09 06:00:00 16.7 24 Sur 40 Sur 0 1010.3 -- 60
2020-11-09 05:00:00 16.8 24 Sur 44 Sudoeste 0 1009.8 -- 60
2020-11-09 04:00:00 16.9 27 Sudoeste 41 Sudoeste 0 1009.3 -- 60
2020-11-09 03:00:00 17.4 21 Sur 37 Sudoeste 0 1009.4 -- 58
2020-11-09 02:00:00 18 26 Sur 49 Sur 0 1009.2 -- 56
2020-11-09 01:00:00 17.4 27 Sur 46 Sur 0.2 1009.2 -- 60
2020-11-09 00:00:00 18.4 27 Sur 55 Sudoeste 0 1009.1 -- 55
2020-11-08 23:00:00 18.8 30 Sur 57 Sur 0 1009 -- 54
2020-11-08 22:00:00 19 28 Sudoeste 48 Sur 0 1008.9 -- 55
2020-11-08 21:00:00 19.1 31 Sur 49 Sur 0 1008.5 -- 54
2020-11-08 20:00:00 19.4 28 Sur 45 Sur 0 1008.5 -- 54
2020-11-08 19:00:00 18.9 26 Sur 46 Sur 0 1008.7 -- 57
2020-11-08 18:00:00 18.1 18 Sur 38 Sur 0 1008.7 -- 64
2020-11-08 17:00:00 18.2 24 Sur 43 Sur 0 1008.9 -- 61
2020-11-08 16:00:00 19.4 23 Sur 43 Sur 0 1008.4 -- 55
2020-11-08 15:00:00 20.1 21 Sur 49 Sur 0 1008.7 -- 49
2020-11-08 14:00:00 20.6 35 Sur 54 Sur 0 1008.6 -- 47
2020-11-08 13:00:00 20.3 26 Sur 42 Sur 0 1009.3 -- 49
2020-11-08 12:00:00 20.6 31 Sur 49 Sur 0 1009.9 -- 49
2020-11-08 11:00:00 19.7 30 Sur 52 Sur 0 1010.3 -- 51
2020-11-08 10:00:00 18.9 35 Sur 54 Sur 0 1010.2 -- 52
2020-11-08 09:00:00 18 35 Sur 55 Sur 0 1009.9 -- 55
2020-11-08 08:00:00 18 35 Sur 61 Sur 0 1009.4 -- 55
2020-11-08 07:00:00 17.9 33 Sur 51 Sur 0 1009.2 -- 57
2020-11-08 06:00:00 17.9 29 Sur 48 Sudoeste 0 1009.7 -- 57
2020-11-08 05:00:00 18 32 Sur 48 Sur 0 1009.7 -- 57
2020-11-08 04:00:00 17.9 26 Sur 41 Sur 0 1010.1 -- 57
2020-11-08 03:00:00 18 25 Sur 42 Sur 0 1010.4 -- 56
2020-11-08 02:00:00 18.3 28 Sur 47 Sudoeste 0 1010.6 -- 55
2020-11-08 01:00:00 18.4 27 Sur 41 Sur 0 1010.6 -- 56
2020-11-08 00:00:00 18 22 Sur 34 Sur 0 1010.7 -- 57
2020-11-07 23:00:00 16.6 13 Sur 22 Sur 0 1010.8 -- 63
2020-11-07 22:00:00 16.6 17 Sur 25 Sur 0 1010.3 -- 70
2020-11-07 21:00:00 15.7 9 Sudeste 12 Sur 0 1010 -- 84
2020-11-07 20:00:00 16 8 Sur 11 Sur 0 1009.5 -- 82
2020-11-07 19:00:00 16.1 5 Sur 12 Sudoeste 0 1009.1 -- 79
2020-11-07 18:00:00 17 7 Sudoeste 22 Oeste 0 1008.3 -- 80
2020-11-07 17:00:00 17.4 15 Oeste 23 Oeste 0 1007.8 -- 85
2020-11-07 16:00:00 18 14 Oeste 27 Oeste 0 1007.3 -- 82
2020-11-07 15:00:00 17.9 18 Oeste 26 Oeste 0 1006.5 -- 80
2020-11-07 14:00:00 17.9 17 Oeste 26 Oeste 0 1006.2 -- 81
2020-11-07 13:00:00 17.9 15 Oeste 22 Oeste 0 1006 -- 79
2020-11-07 12:00:00 17.3 14 Oeste 21 Oeste 0 1005.9 -- 83
2020-11-07 11:00:00 19.6 10 Sudoeste 37 Sur 0 1005.3 -- 57
2020-11-07 10:00:00 18.4 24 Sur 36 Sur 0 1004.2 -- 62
2020-11-07 09:00:00 16.5 14 Sudeste 20 Sur 0 1004.4 -- 74
2020-11-07 08:00:00 17.9 18 Este 34 Sudeste 0 1004.3 -- 66
2020-11-07 07:00:00 19.2 17 Sudoeste 33 Sur 0 1004.1 -- 54
2020-11-07 06:00:00 18.1 8 Sur 20 Sudeste 0 1003.5 -- 70
2020-11-07 05:00:00 18.6 9 Sudeste 18 Sudeste 0 1003.9 -- 68
2020-11-07 04:00:00 18.8 11 Sudeste 26 Sudeste 0 1004.3 -- 67
2020-11-07 03:00:00 18.9 18 Sudeste 33 Sudeste 0 1004.1 -- 67
2020-11-07 02:00:00 19.1 17 Sudeste 31 Sudeste 0 1004.1 -- 66
2020-11-07 01:00:00 18.2 12 Este 29 Sur 0 1004 -- 72
2020-11-07 00:00:00 18.8 23 Sur 73 Sudoeste 0 1004 -- 58
2020-11-06 23:00:00 21.1 27 Sudoeste -- -- -- 1006.2 -- 53
2020-11-06 22:00:00 20.4 17 Sudeste 41 Sudeste 0 1003.5 -- 61
2020-11-06 21:00:00 20.7 28 Sudeste 42 Sudeste 0 1003.3 -- 60
2020-11-06 20:00:00 20.3 23 Sudeste 30 Sudeste 0 1003.8 -- 62
2020-11-06 19:00:00 20.5 13 Sudeste 47 Sur 0 1004.4 -- 60
2020-11-06 18:00:00 20.8 26 Sudeste 42 Sudeste 0 1004.4 -- 58
2020-11-06 17:00:00 20.9 29 Sudeste 50 Sudeste 0 1004.9 -- 57
2020-11-06 16:00:00 20.8 23 Sudeste 51 Sudeste 0 1005.3 -- 57
2020-11-06 15:00:00 21.8 28 Sudeste 46 Sudeste 0 1005.1 -- 52
2020-11-06 14:00:00 21.6 26 Sudeste 41 Sudeste 0 1006.7 -- 56
2020-11-06 13:00:00 20.7 13 Sudeste 29 Sudeste 0 1008.4 -- 60
2020-11-06 12:00:00 18.6 9 Sudeste 16 Sudeste 0 1009.5 -- 65
2020-11-06 11:00:00 18.4 11 Sudeste 26 Sur 0 1009.7 -0.1 63
2020-11-06 10:00:00 16.6 17 Sur 22 Sur 0 1010.1 -- 72
2020-11-06 09:00:00 16.5 15 Sur 19 Sudoeste 0 1009.9 -- 69
2020-11-06 08:00:00 15.8 12 Sur 14 Sur 0 1009.8 -- 73
2020-11-06 07:00:00 15.9 5 Sudoeste 16 Sur 0 1009.9 -- 72
2020-11-06 06:00:00 15.8 14 Sudeste 29 Este 0 1009.9 -- 75
2020-11-06 05:00:00 16.7 24 Este 32 Este 0 1009.6 -- 73
2020-11-06 04:00:00 16.5 15 Este 27 Sudeste 0 1010.1 -- 73
2020-11-06 03:00:00 16.9 18 Este 36 Este 0 1010.3 -- 71
2020-11-06 02:00:00 17.1 20 Este 40 Este 0 1010.5 -- 70
2020-11-06 01:00:00 16.7 28 Este 38 Este 0 1011.1 -- 74
2020-11-06 00:00:00 15.9 22 Este 52 Este 0 1011.8 -- 81
2020-11-05 23:00:00 15.6 30 Este 49 Este 0 1012 -- 84
2020-11-05 22:00:00 15.3 39 Este 54 Este 0 1012.5 -- 81
2020-11-05 21:00:00 15.2 18 Este 39 Este 0 1013 -- 77
2020-11-05 20:00:00 15 34 Este 59 Este 0 1013.2 -- 79
2020-11-05 19:00:00 14.8 41 Este 59 Este 0 1013.5 -- 80
2020-11-05 18:00:00 14.4 39 Este 59 Este 0 1013.5 -- 80
2020-11-05 17:00:00 14.3 47 Este 69 Este 0 1014 -- 80
2020-11-05 16:00:00 14.2 53 Este 69 Este 0 1013.9 -- 78
2020-11-05 15:00:00 14.8 53 Este 69 Este 0 1014.5 -- 73
2020-11-05 14:00:00 14.4 51 Este 68 Este 0 1015.3 -- 73
2020-11-05 13:00:00 14.1 43 Este 58 Este 0 1016.6 -- 71
2020-11-05 12:00:00 14 41 Este 54 Este 0 1017.9 -- 69
2020-11-05 11:00:00 12.6 37 Este 48 Este 0 1019.1 -- 77
2020-11-05 10:00:00 13.3 23 Este 41 Este 0 1019.7 -- 75
2020-11-05 09:00:00 12.2 24 Este 41 Este 0 1019.6 -- 76
2020-11-05 08:00:00 10.6 19 Sudeste 35 Sudeste 0 1019.5 -- 78
2020-11-05 07:00:00 10.7 21 Este 31 Este 0 1019.4 -- 78
2020-11-05 06:00:00 10.8 18 Sudeste 30 Sudeste 0 1019.8 -- 76
2020-11-05 05:00:00 10.9 17 Este 27 Este 0 1020 -- 74
2020-11-05 04:00:00 11.4 16 Este 26 Sudeste 0 1020.3 -- 72
2020-11-05 03:00:00 11.1 17 Sudeste 26 Sudeste 0 1020.5 -- 73
2020-11-05 02:00:00 11.4 17 Sudeste 27 Sudeste 0 1020.7 -- 71
2020-11-05 01:00:00 12.1 18 Sudeste 46 Este 0 1020.8 -- 70
2020-11-05 00:00:00 12.7 30 Este 54 Este 0 1020.9 -- 67